Irving North's Hourly Summary for Tuesday, July 10, 2018
Hour Temp
(f)
RH
(%)
Solar Rad.
(MJ/m2)
Rainfall
(in)
Wind
(mph)
7/10/2018 12:00 AM 79 70 0 0 3.93
7/10/2018 1:00 AM 78 77 0 0 4.47
7/10/2018 2:00 AM 77 79 0 0 3.11
7/10/2018 3:00 AM 77 77 0 0 3.46
7/10/2018 4:00 AM 76 79 0 0 2.71
7/10/2018 5:00 AM 75 81 0 0 2.86
7/10/2018 6:00 AM 75 83 0.02 0 3.18
7/10/2018 7:00 AM 76 73 0.46 0 3.36
7/10/2018 8:00 AM 80 67 1.01 0 4.02
7/10/2018 9:00 AM 83 59 1.78 0 4.35
7/10/2018 10:00 AM 86 52 2.43 0 5.43
7/10/2018 11:00 AM 88 46 2.06 0 4.12
7/10/2018 12:00 PM 90 44 1.8 0 3.1
7/10/2018 1:00 PM 90 42 1.72 0 2.4
7/10/2018 2:00 PM 91 40 2 0 3.24
7/10/2018 3:00 PM 82 45 0.18 0 8.25
7/10/2018 4:00 PM 78 66 0.1 0 5.14
7/10/2018 5:00 PM 80 64 0.17 0 2.95
7/10/2018 6:00 PM 80 69 0.3 0 3.05
7/10/2018 7:00 PM 82 65 0.15 0 2.26
7/10/2018 8:00 PM 81 71 0.02 0 3.77
7/10/2018 9:00 PM 80 77 0 0 2.6
7/10/2018 10:00 PM 80 74 0 0 2.45
7/10/2018 11:00 PM 80 74 0 0 1.83
Data Summary 81 65 14.20 0.00 3.59